Time;durP1;ratioP1;P1;durP2;ratioP2;P2;SDS_P1;SDS_P2;PMS_P1;PMS_P2;Temp;Humidity;BMP_temperature;BMP_pressure;BME280_temperature;BME280_humidity;BME280_pressure;Samples;Min_cycle;Max_cycle;Signal;HPM_P1;HPM_P2
2022/09/12 00:00:37;;;;;;;11.50;10.30;;;15.90;99.90;;;;;;4994851;28;20413;-73
2022/09/12 00:03:03;;;;;;;11.30;10.20;;;15.90;99.90;;;;;;4995001;28;20050;-73
2022/09/12 00:05:29;;;;;;;10.30;9.30;;;15.90;99.90;;;;;;4994961;28;20435;-73
2022/09/12 00:07:55;;;;;;;13.07;10.97;;;15.90;99.90;;;;;;4994840;28;20046;-73
2022/09/12 00:10:21;;;;;;;10.80;9.70;;;15.90;99.90;;;;;;4995305;28;20100;-73
2022/09/12 00:12:47;;;;;;;10.57;9.43;;;15.80;99.90;;;;;;4994503;28;20050;-74
2022/09/12 00:15:13;;;;;;;11.17;10.13;;;15.80;99.90;;;;;;4995307;28;20069;-73
2022/09/12 00:17:38;;;;;;;11.33;10.23;;;15.70;99.90;;;;;;4994588;28;20074;-73
2022/09/12 00:20:07;;;;;;;10.37;9.27;;;15.70;99.90;;;;;;4994663;28;20057;-73
2022/09/12 00:22:33;;;;;;;11.27;10.10;;;15.70;99.90;;;;;;4994570;28;20464;-73
2022/09/12 00:24:59;;;;;;;12.00;10.70;;;15.70;99.90;;;;;;4994598;28;20054;-73
2022/09/12 00:27:26;;;;;;;11.60;9.77;;;15.70;99.90;;;;;;4994184;28;20054;-73
2022/09/12 00:29:52;;;;;;;11.53;8.83;;;15.60;99.90;;;;;;4995184;28;20043;-73
2022/09/12 00:32:18;;;;;;;11.17;9.97;;;15.60;99.90;;;;;;4994039;28;20053;-73
2022/09/12 00:34:44;;;;;;;9.73;8.70;;;15.60;99.90;;;;;;4994252;28;20085;-73
2022/09/12 00:37:10;;;;;;;12.27;9.87;;;15.60;99.90;;;;;;4994461;28;20050;-73
2022/09/12 00:39:35;;;;;;;10.70;9.37;;;15.60;99.90;;;;;;4994445;28;20038;-73
2022/09/12 00:42:01;;;;;;;11.97;9.47;;;15.60;99.90;;;;;;4994755;28;20528;-73
2022/09/12 00:44:27;;;;;;;9.23;8.27;;;15.60;99.90;;;;;;4994109;28;20061;-73
2022/09/12 00:47:15;;;;;;;9.87;8.77;;;15.60;99.90;;;;;;4994296;28;20128;-74
2022/09/12 00:49:50;;;;;;;8.87;7.97;;;15.50;99.90;;;;;;4994800;28;20046;-73
2022/09/12 00:52:30;;;;;;;9.50;8.53;;;15.50;99.90;;;;;;4994217;28;20053;-73
2022/09/12 00:55:01;;;;;;;9.83;8.83;;;15.50;99.90;;;;;;4993905;28;20573;-73
2022/09/12 00:57:33;;;;;;;12.57;9.63;;;15.40;99.90;;;;;;4994251;28;20046;-73
2022/09/12 01:00:10;;;;;;;10.97;9.87;;;15.40;99.90;;;;;;4994922;28;20053;-73
2022/09/12 01:02:36;;;;;;;9.53;8.53;;;15.40;99.90;;;;;;4994421;28;20141;-73
2022/09/12 01:05:01;;;;;;;10.17;8.90;;;15.40;99.90;;;;;;4993027;28;20129;-73
2022/09/12 01:07:27;;;;;;;10.13;9.00;;;15.40;99.90;;;;;;4993986;28;20054;-73
2022/09/12 01:09:53;;;;;;;9.87;8.93;;;15.40;99.90;;;;;;4993453;28;20141;-74
2022/09/12 01:12:19;;;;;;;9.47;8.47;;;15.40;99.90;;;;;;4993956;28;20120;-73
2022/09/12 01:14:45;;;;;;;10.10;9.07;;;15.40;99.90;;;;;;4993895;28;20547;-73
2022/09/12 01:17:13;;;;;;;9.77;8.77;;;15.30;99.90;;;;;;4993617;28;20128;-73
2022/09/12 01:20:04;;;;;;;10.33;8.53;;;15.30;99.90;;;;;;4993813;28;20538;-73
2022/09/12 01:23:09;;;;;;;11.03;8.43;;;15.30;99.90;;;;;;4994674;28;20057;-73
2022/09/12 01:25:38;;;;;;;12.03;8.27;;;15.30;99.90;;;;;;4976720;28;20093;-73
2022/09/12 01:28:21;;;;;;;9.87;8.67;;;15.30;99.90;;;;;;4993664;28;20058;-73
2022/09/12 01:31:01;;;;;;;10.10;8.90;;;15.30;99.90;;;;;;4993777;28;20086;-73
2022/09/12 01:33:32;;;;;;;9.60;8.70;;;15.30;99.90;;;;;;4993720;28;20497;-73
2022/09/12 01:36:09;;;;;;;10.17;8.30;;;15.20;99.90;;;;;;4993713;28;20054;-73
2022/09/12 01:38:37;;;;;;;9.33;8.40;;;15.20;99.90;;;;;;4994175;28;20093;-73
2022/09/12 01:41:28;;;;;;;8.83;7.93;;;15.20;99.90;;;;;;4993877;28;20100;-73
2022/09/12 01:44:22;;;;;;;8.70;7.63;;;15.20;99.90;;;;;;4994182;28;20065;-73
2022/09/12 01:47:12;;;;;;;9.40;8.00;;;15.10;99.90;;;;;;4998170;28;20081;-72
2022/09/12 01:50:05;;;;;;;8.90;8.00;;;15.10;99.90;;;;;;4997460;28;20081;-72
2022/09/12 01:52:49;;;;;;;8.87;7.90;;;15.10;99.90;;;;;;4997518;28;20056;-73
2022/09/12 01:55:24;;;;;;;9.80;7.53;;;15.10;99.90;;;;;;4997222;28;20053;-72
2022/09/12 01:58:05;;;;;;;10.68;8.98;;;15.10;99.90;;;;;;4997431;28;20054;-72
2022/09/12 02:00:34;;;;;;;10.60;8.63;;;15.10;99.90;;;;;;4997419;28;20134;-73
2022/09/12 02:03:08;;;;;;;11.07;8.37;;;15.00;99.90;;;;;;4997281;28;20050;-73
2022/09/12 02:05:39;;;;;;;12.77;8.97;;;15.10;99.90;;;;;;4997876;28;20627;-72
2022/09/12 02:08:40;;;;;;;12.50;8.87;;;15.00;99.90;;;;;;4996229;28;20479;-73
2022/09/12 02:11:09;;;;;;;9.67;8.67;;;15.00;99.90;;;;;;4965523;28;20451;-73
2022/09/12 02:13:41;;;;;;;9.50;8.50;;;15.00;99.90;;;;;;4997106;28;20058;-73
2022/09/12 02:16:16;;;;;;;9.50;8.50;;;15.00;99.90;;;;;;4996160;28;20293;-73
2022/09/12 02:18:54;;;;;;;9.63;8.63;;;15.00;99.90;;;;;;4997860;28;20046;-72
2022/09/12 02:21:23;;;;;;;10.17;9.17;;;15.00;99.90;;;;;;4998140;28;20054;-73
2022/09/12 02:23:56;;;;;;;8.97;7.83;;;15.00;99.90;;;;;;4996685;28;20656;-73
2022/09/12 02:26:43;;;;;;;8.50;7.70;;;15.00;99.90;;;;;;4995830;28;20061;-73
2022/09/12 02:29:08;;;;;;;12.63;9.50;;;15.00;99.90;;;;;;4996838;28;20301;-73
2022/09/12 02:31:53;;;;;;;10.10;8.77;;;14.90;99.90;;;;;;4996781;28;20336;-73
2022/09/12 02:34:40;;;;;;;10.70;9.60;;;14.90;99.90;;;;;;4996772;28;20073;-73
2022/09/12 02:37:28;;;;;;;10.10;8.67;;;14.90;99.90;;;;;;4997254;28;20292;-73
2022/09/12 02:39:56;;;;;;;12.57;9.93;;;14.80;99.90;;;;;;4996715;28;20282;-73
2022/09/12 02:42:22;;;;;;;9.57;8.57;;;14.90;99.90;;;;;;4995901;28;20368;-73
2022/09/12 02:44:50;;;;;;;10.60;8.57;;;14.90;99.90;;;;;;4996560;28;20286;-72
2022/09/12 02:47:25;;;;;;;10.30;9.17;;;14.80;99.90;;;;;;4996994;28;20297;-73
2022/09/12 02:49:52;;;;;;;9.73;8.80;;;14.80;99.90;;;;;;4997039;28;20301;-72
2022/09/12 02:52:19;;;;;;;9.83;8.83;;;14.80;99.90;;;;;;4996465;28;20286;-73
2022/09/12 02:54:45;;;;;;;9.70;8.67;;;14.70;99.90;;;;;;4996497;28;20100;-72
2022/09/12 02:57:19;;;;;;;9.90;8.60;;;14.70;99.90;;;;;;4995441;28;20646;-67
2022/09/12 02:59:45;;;;;;;10.17;8.60;;;14.70;99.90;;;;;;4996717;28;20351;-67
2022/09/12 03:02:44;;;;;;;11.67;10.00;;;14.70;99.90;;;;;;4996395;28;20281;-67
2022/09/12 03:05:33;;;;;;;9.97;8.97;;;14.70;99.90;;;;;;4997411;28;20372;-68
2022/09/12 03:08:21;;;;;;;12.37;9.70;;;14.70;99.90;;;;;;4996958;28;20712;-67
2022/09/12 03:11:08;;;;;;;13.03;11.03;;;14.70;99.90;;;;;;4997261;28;20390;-67
2022/09/12 03:14:01;;;;;;;11.30;10.07;;;14.60;99.90;;;;;;4996198;28;20289;-67
2022/09/12 03:16:39;;;;;;;15.50;11.27;;;14.60;99.90;;;;;;4993151;28;20716;-67
2022/09/12 03:19:18;;;;;;;11.57;10.37;;;14.70;99.90;;;;;;4996649;28;20280;-67
2022/09/12 03:21:57;;;;;;;13.07;11.77;;;14.70;99.90;;;;;;4996545;28;20277;-67
2022/09/12 03:24:36;;;;;;;12.03;10.83;;;14.60;99.90;;;;;;4995783;28;20298;-67
2022/09/12 03:27:19;;;;;;;12.90;11.67;;;14.60;99.90;;;;;;4995856;28;20290;-67
2022/09/12 03:29:47;;;;;;;14.53;11.90;;;14.60;99.90;;;;;;4996252;28;20697;-67
2022/09/12 03:32:13;;;;;;;13.20;11.80;;;14.60;99.90;;;;;;4994252;28;20764;-67
2022/09/12 03:34:39;;;;;;;14.60;13.10;;;14.60;99.90;;;;;;4995721;28;20769;-67
2022/09/12 03:37:05;;;;;;;15.70;13.67;;;14.60;99.90;;;;;;4995938;28;20332;-67
2022/09/12 03:39:31;;;;;;;14.93;12.93;;;14.50;99.90;;;;;;4995636;28;20042;-67
2022/09/12 03:41:57;;;;;;;15.93;14.37;;;14.50;99.90;;;;;;4995578;28;20074;-67
2022/09/12 03:44:23;;;;;;;14.70;13.30;;;14.50;99.90;;;;;;4994387;28;20133;-67
2022/09/12 03:46:49;;;;;;;15.57;14.07;;;14.50;99.90;;;;;;4995457;28;20053;-67
2022/09/12 03:49:15;;;;;;;15.10;13.53;;;14.50;99.90;;;;;;4995380;28;20297;-67
2022/09/12 03:51:42;;;;;;;16.50;14.80;;;14.50;99.90;;;;;;4995899;28;20387;-67
2022/09/12 03:54:08;;;;;;;16.40;14.70;;;14.50;99.90;;;;;;4962218;28;20320;-67
2022/09/12 03:56:34;;;;;;;16.50;14.73;;;14.50;99.90;;;;;;4995248;28;20753;-67
2022/09/12 03:59:00;;;;;;;16.57;14.87;;;14.50;99.90;;;;;;4994043;28;20364;-67
2022/09/12 04:01:26;;;;;;;18.87;16.77;;;14.50;99.90;;;;;;4995165;28;20439;-67
2022/09/12 04:03:51;;;;;;;18.60;16.80;;;14.50;99.90;;;;;;4995251;28;20057;-67
2022/09/12 04:06:21;;;;;;;19.77;16.93;;;14.50;99.90;;;;;;4995089;28;20050;-67
2022/09/12 04:08:49;;;;;;;18.33;16.57;;;14.50;99.90;;;;;;4994025;28;20380;-67
2022/09/12 04:11:16;;;;;;;19.70;17.80;;;14.50;99.90;;;;;;4994773;28;20837;-68
2022/09/12 04:13:43;;;;;;;20.17;17.80;;;14.50;99.90;;;;;;4995437;28;20686;-67
2022/09/12 04:16:10;;;;;;;20.70;18.70;;;14.50;99.90;;;;;;4994026;28;20780;-67
2022/09/12 04:18:36;;;;;;;22.70;20.40;;;14.50;99.90;;;;;;4994931;28;20424;-67
2022/09/12 04:21:04;;;;;;;20.20;18.20;;;14.50;99.90;;;;;;4995412;28;20340;-67
2022/09/12 04:23:30;;;;;;;20.70;18.70;;;14.50;99.90;;;;;;4994531;28;20273;-67
2022/09/12 04:25:58;;;;;;;21.77;19.57;;;14.50;99.90;;;;;;4995254;28;20324;-67
2022/09/12 04:28:24;;;;;;;22.07;19.90;;;14.50;99.90;;;;;;4994820;28;20092;-67
2022/09/12 04:30:50;;;;;;;22.23;19.93;;;14.60;99.90;;;;;;4994629;28;20308;-67
2022/09/12 04:33:16;;;;;;;23.17;20.63;;;14.60;99.90;;;;;;4994656;28;20278;-68
2022/09/12 04:35:43;;;;;;;22.60;20.33;;;14.60;99.90;;;;;;4994693;28;20053;-67
2022/09/12 04:38:08;;;;;;;22.53;20.07;;;14.60;99.90;;;;;;4994591;28;20757;-67
2022/09/12 04:40:34;;;;;;;22.97;20.47;;;14.70;99.90;;;;;;4995103;28;20356;-67
2022/09/12 04:43:00;;;;;;;22.60;20.30;;;14.70;99.90;;;;;;4994757;28;20346;-67
2022/09/12 04:45:26;;;;;;;22.67;20.47;;;14.70;99.90;;;;;;4994715;28;20133;-67
2022/09/12 04:47:52;;;;;;;25.90;22.00;;;14.70;99.90;;;;;;4977295;28;20057;-67
2022/09/12 04:50:18;;;;;;;25.20;22.67;;;14.80;99.90;;;;;;4994800;28;20065;-71
2022/09/12 04:52:49;;;;;;;22.40;19.97;;;14.70;99.90;;;;;;4994881;28;20054;-67
2022/09/12 04:55:15;;;;;;;22.23;20.03;;;14.70;99.90;;;;;;4994524;28;20762;-67
2022/09/12 04:57:41;;;;;;;23.10;20.80;;;14.80;99.90;;;;;;4994278;28;20346;-67
2022/09/12 05:00:11;;;;;;;23.87;21.37;;;14.80;99.90;;;;;;4994852;28;20057;-67
2022/09/12 05:02:38;;;;;;;22.87;20.67;;;14.80;99.90;;;;;;4994262;28;20277;-67
2022/09/12 05:05:04;;;;;;;24.83;22.17;;;14.80;99.90;;;;;;4994186;28;20439;-67
2022/09/12 05:07:29;;;;;;;24.73;22.20;;;14.90;99.90;;;;;;4994882;28;20309;-67
2022/09/12 05:09:55;;;;;;;26.83;23.10;;;14.90;99.90;;;;;;4994336;28;20762;-67
2022/09/12 05:12:20;;;;;;;27.37;23.47;;;14.90;99.90;;;;;;4994056;28;20550;-67
2022/09/12 05:14:46;;;;;;;24.03;21.63;;;14.90;99.90;;;;;;4994526;28;20430;-67
2022/09/12 05:17:12;;;;;;;25.03;22.33;;;14.90;99.90;;;;;;4994569;28;20065;-67
2022/09/12 05:19:38;;;;;;;24.67;22.07;;;15.00;99.90;;;;;;4993703;28;20042;-67
2022/09/12 05:22:05;;;;;;;26.10;23.43;;;15.00;99.90;;;;;;4993965;28;20136;-67
2022/09/12 05:24:31;;;;;;;25.87;22.83;;;15.10;99.90;;;;;;4992644;28;20140;-67
2022/09/12 05:26:57;;;;;;;26.17;23.37;;;15.10;99.90;;;;;;4994064;28;20278;-67
2022/09/12 05:29:24;;;;;;;27.73;23.07;;;15.10;99.90;;;;;;4994659;28;20714;-68
2022/09/12 05:31:50;;;;;;;26.03;23.20;;;15.10;99.90;;;;;;4993942;28;20285;-67
2022/09/12 05:34:17;;;;;;;26.30;23.50;;;15.10;99.90;;;;;;4994494;28;20475;-67
2022/09/12 05:36:42;;;;;;;30.20;25.77;;;15.20;99.90;;;;;;4993892;28;20053;-67
2022/09/12 05:39:08;;;;;;;26.83;24.03;;;15.10;99.90;;;;;;4993905;28;20269;-67
2022/09/12 05:41:34;;;;;;;26.17;23.47;;;15.10;99.90;;;;;;4993828;28;20088;-67
2022/09/12 05:44:03;;;;;;;27.70;24.77;;;15.10;99.90;;;;;;4994593;28;20494;-67
2022/09/12 05:46:31;;;;;;;26.60;23.67;;;15.10;99.90;;;;;;4992622;28;20046;-68
2022/09/12 05:49:01;;;;;;;26.70;23.87;;;15.20;99.90;;;;;;4993737;28;20377;-67
2022/09/12 05:51:30;;;;;;;25.93;23.43;;;15.20;99.90;;;;;;4993755;28;20053;-68
2022/09/12 05:53:58;;;;;;;27.33;23.33;;;15.20;99.90;;;;;;4993711;28;20050;-67
2022/09/12 05:56:29;;;;;;;27.80;24.93;;;15.30;99.90;;;;;;4993709;28;20055;-71
2022/09/12 05:59:01;;;;;;;28.57;25.47;;;15.30;99.90;;;;;;4994170;28;20498;-67
2022/09/12 06:01:28;;;;;;;28.97;25.93;;;15.30;99.90;;;;;;4994446;28;20054;-68
2022/09/12 06:03:56;;;;;;;27.27;24.37;;;15.30;99.90;;;;;;4993526;28;20089;-67
2022/09/12 06:06:24;;;;;;;26.07;23.40;;;15.30;99.90;;;;;;4993741;28;20061;-67
2022/09/12 06:08:52;;;;;;;29.17;25.23;;;15.30;99.90;;;;;;4992354;28;20050;-67
2022/09/12 06:11:24;;;;;;;29.63;26.20;;;15.30;99.90;;;;;;4993592;28;20050;-67
2022/09/12 06:13:51;;;;;;;27.40;24.40;;;15.40;99.90;;;;;;4993585;28;20140;-67
2022/09/12 06:16:17;;;;;;;29.93;25.63;;;15.40;99.90;;;;;;4993512;28;20113;-67
2022/09/12 06:18:48;;;;;;;30.23;27.07;;;15.40;99.90;;;;;;4993452;28;20061;-67
2022/09/12 06:21:14;;;;;;;29.83;26.73;;;15.40;99.90;;;;;;4993540;28;20133;-67
2022/09/12 06:23:40;;;;;;;30.83;27.53;;;15.50;99.90;;;;;;4992962;28;20090;-67
2022/09/12 06:26:08;;;;;;;34.37;28.17;;;15.50;99.90;;;;;;4975787;28;20062;-68
2022/09/12 06:28:37;;;;;;;32.70;29.33;;;15.50;99.90;;;;;;4993340;28;20521;-66
2022/09/12 06:31:08;;;;;;;32.30;27.27;;;15.50;99.90;;;;;;4994203;28;20057;-66
2022/09/12 06:33:36;;;;;;;33.63;30.03;;;15.50;99.90;;;;;;4997415;28;20339;-67
2022/09/12 06:36:12;;;;;;;34.03;30.37;;;15.50;99.90;;;;;;4996858;28;20042;-67
2022/09/12 06:38:39;;;;;;;36.43;32.07;;;15.50;99.90;;;;;;4996821;28;20133;-67
2022/09/12 06:41:06;;;;;;;37.20;32.87;;;15.50;99.90;;;;;;4997525;28;20153;-66
2022/09/12 06:43:33;;;;;;;36.60;32.10;;;15.50;99.90;;;;;;4996672;28;20495;-66
2022/09/12 06:45:59;;;;;;;39.20;32.17;;;15.50;99.90;;;;;;4996741;28;20082;-67
2022/09/12 06:48:24;;;;;;;39.73;33.87;;;15.50;99.90;;;;;;4996679;28;20445;-68
2022/09/12 06:51:03;;;;;;;42.60;35.23;;;15.60;99.90;;;;;;4996116;28;20038;-68
2022/09/12 06:53:32;;;;;;;40.63;35.27;;;15.70;99.90;;;;;;4964054;28;20085;-68
2022/09/12 06:56:10;;;;;;;41.40;33.93;;;15.70;99.90;;;;;;4996481;28;20093;-68
2022/09/12 06:58:36;;;;;;;41.07;33.93;;;15.80;99.90;;;;;;4995711;28;20046;-69
2022/09/12 07:01:08;;;;;;;44.93;36.43;;;15.90;99.90;;;;;;4996460;28;20050;-68
2022/09/12 07:03:34;;;;;;;39.67;34.90;;;15.90;99.90;;;;;;4996267;28;20421;-69
2022/09/12 07:06:06;;;;;;;44.93;36.53;;;15.90;99.90;;;;;;4996541;28;20049;-69
2022/09/12 07:08:33;;;;;;;43.97;36.17;;;16.00;99.90;;;;;;4996733;28;20129;-68
2022/09/12 07:11:20;;;;;;;42.73;37.43;;;16.00;99.90;;;;;;4996236;28;20511;-67
2022/09/12 07:13:48;;;;;;;43.70;35.23;;;16.00;99.90;;;;;;4996093;28;20097;-68
2022/09/12 07:16:14;;;;;;;45.23;37.13;;;16.00;99.90;;;;;;4996121;28;20483;-69
2022/09/12 07:18:40;;;;;;;41.53;35.57;;;16.00;99.90;;;;;;4996594;28;20447;-68
2022/09/12 07:21:09;;;;;;;46.10;39.17;;;16.00;99.90;;;;;;4996065;28;20054;-68
2022/09/12 07:23:34;;;;;;;44.63;37.23;;;16.10;99.90;;;;;;4996710;28;20042;-69
2022/09/12 07:26:01;;;;;;;45.23;36.30;;;16.10;99.90;;;;;;4997038;28;20468;-68
2022/09/12 07:28:29;;;;;;;43.63;36.93;;;16.10;99.90;;;;;;4996698;28;20054;-68
2022/09/12 07:30:55;;;;;;;47.90;38.53;;;16.20;99.90;;;;;;4995810;28;20046;-69
2022/09/12 07:33:23;;;;;;;48.50;36.83;;;16.30;99.90;;;;;;4995893;28;20388;-66
2022/09/12 07:35:49;;;;;;;47.40;38.83;;;16.40;99.90;;;;;;4995698;28;20042;-65
2022/09/12 07:38:16;;;;;;;41.83;36.27;;;16.50;99.90;;;;;;4996280;28;20042;-67
2022/09/12 07:40:42;;;;;;;45.73;35.83;;;16.60;99.90;;;;;;4996143;28;20129;-70
2022/09/12 07:43:08;;;;;;;47.63;37.27;;;16.60;99.90;;;;;;4995106;28;20538;-69
2022/09/12 07:45:34;;;;;;;45.10;36.90;;;16.60;99.90;;;;;;4994821;28;20141;-71
2022/09/12 07:48:00;;;;;;;45.13;36.80;;;16.60;99.90;;;;;;4995544;28;20042;-72
2022/09/12 07:50:25;;;;;;;48.73;37.63;;;16.60;99.90;;;;;;4995397;28;20345;-70
2022/09/12 07:52:53;;;;;;;44.17;35.70;;;16.60;99.90;;;;;;4995966;28;20047;-70
2022/09/12 07:55:20;;;;;;;44.87;35.13;;;16.70;99.90;;;;;;4994245;28;20050;-71
2022/09/12 07:57:49;;;;;;;42.87;35.93;;;16.70;99.90;;;;;;4995601;28;20054;-69
2022/09/12 08:00:15;;;;;;;41.93;36.50;;;16.70;99.90;;;;;;4995298;28;20046;-69
2022/09/12 08:02:41;;;;;;;45.67;36.33;;;16.70;99.90;;;;;;4995261;28;20137;-70
2022/09/12 08:05:07;;;;;;;44.27;37.80;;;16.80;99.90;;;;;;4994059;28;20125;-70
2022/09/12 08:07:33;;;;;;;49.90;40.53;;;16.90;99.90;;;;;;4995867;28;20046;-68
2022/09/12 08:09:59;;;;;;;49.53;40.23;;;17.00;99.90;;;;;;4994588;28;20085;-70
2022/09/12 08:12:28;;;;;;;46.23;38.80;;;17.10;99.90;;;;;;4995633;28;20046;-70
2022/09/12 08:14:54;;;;;;;44.87;37.60;;;17.20;99.90;;;;;;4995097;28;20070;-69
2022/09/12 08:17:20;;;;;;;45.57;37.50;;;17.40;99.90;;;;;;4995597;28;20371;-68
2022/09/12 08:19:45;;;;;;;49.00;40.87;;;17.50;99.90;;;;;;4994959;28;20042;-69
2022/09/12 08:22:12;;;;;;;50.50;41.27;;;17.60;99.90;;;;;;4995405;28;20125;-68
2022/09/12 08:24:38;;;;;;;45.60;39.13;;;17.80;99.90;;;;;;4993812;28;20096;-68
2022/09/12 08:27:05;;;;;;;45.63;38.77;;;18.00;99.90;;;;;;4994771;28;20050;-69
2022/09/12 08:29:31;;;;;;;46.47;41.37;;;18.10;99.90;;;;;;4994706;28;20129;-68
2022/09/12 08:31:56;;;;;;;43.47;36.50;;;18.20;99.90;;;;;;4994700;28;20129;-68
2022/09/12 08:34:23;;;;;;;44.40;39.57;;;18.20;99.90;;;;;;4994672;28;20104;-68
2022/09/12 08:36:50;;;;;;;45.50;40.50;;;18.20;99.90;;;;;;4994645;28;20053;-69
2022/09/12 08:39:16;;;;;;;46.37;39.17;;;18.30;99.90;;;;;;4994606;28;20046;-68
2022/09/12 08:42:19;;;;;;;48.23;40.43;;;18.40;99.90;;;;;;4994548;28;20049;-68
2022/09/12 08:45:13;;;;;;;49.40;39.57;;;18.50;99.90;;;;;;4992246;28;20422;-69
2022/09/12 08:47:43;;;;;;;45.13;39.87;;;18.60;99.90;;;;;;4994735;28;20050;-68
2022/09/12 08:50:10;;;;;;;48.90;40.53;;;18.70;99.90;;;;;;4994893;28;20047;-68
2022/09/12 08:52:38;;;;;;;52.37;40.63;;;18.80;99.90;;;;;;4994439;28;20093;-68
2022/09/12 08:55:15;;;;;;;53.40;44.07;;;18.90;99.90;;;;;;4993717;28;20062;-68
2022/09/12 08:57:41;;;;;;;50.77;43.23;;;18.90;99.90;;;;;;4994576;28;20050;-69
2022/09/12 09:00:12;;;;;;;53.40;41.20;;;19.00;99.90;;;;;;4994525;28;20042;-69
2022/09/12 09:02:53;;;;;;;52.87;42.53;;;19.00;99.90;;;;;;4994816;28;20061;-68
2022/09/12 09:05:36;;;;;;;52.10;41.53;;;19.10;99.90;;;;;;4994750;28;20423;-68
2022/09/12 09:08:11;;;;;;;55.60;43.40;;;;;;;;;;4994642;28;20372;-69
2022/09/12 09:10:37;;;;;;;;;;;;;;;;;;4994681;28;20100;-69
2022/09/12 09:13:12;;;;;;;51.37;41.87;;;19.40;99.90;;;;;;4993894;28;20008;-69
2022/09/12 09:16:06;;;;;;;48.47;38.88;;;19.50;99.90;;;;;;4993915;28;20050;-69
2022/09/12 09:18:34;;;;;;;50.60;39.37;;;19.60;99.90;;;;;;4990948;28;20092;-68
2022/09/12 09:21:17;;;;;;;54.77;40.67;;;19.60;99.90;;;;;;4993636;28;20289;-68
2022/09/12 09:23:48;;;;;;;51.53;38.77;;;19.60;99.90;;;;;;4994823;28;20387;-69
2022/09/12 09:26:32;;;;;;;47.70;37.20;;;19.70;99.90;;;;;;4994498;28;20124;-69
2022/09/12 09:29:03;;;;;;;45.03;36.53;;;;;;;;;;4994399;28;20034;-69
2022/09/12 09:31:37;;;;;;;48.87;35.40;;;19.80;99.90;;;;;;4994147;28;20052;-69
2022/09/12 09:34:14;;;;;;;43.23;32.13;;;19.90;99.90;;;;;;4993898;28;20134;-69
2022/09/12 09:36:57;;;;;;;42.53;32.47;;;19.90;99.90;;;;;;4994158;28;20043;-68
2022/09/12 09:39:23;;;;;;;44.13;33.53;;;19.80;99.90;;;;;;4993984;28;20137;-67
2022/09/12 09:42:15;;;;;;;43.67;33.93;;;19.80;99.90;;;;;;4993572;28;20137;-68
2022/09/12 09:44:42;;;;;;;40.67;32.20;;;19.80;99.90;;;;;;4985645;28;20470;-69
2022/09/12 09:47:10;;;;;;;45.97;33.30;;;19.80;99.90;;;;;;4993776;28;20395;-69
2022/09/12 09:49:36;;;;;;;39.50;30.30;;;19.80;99.90;;;;;;4993667;28;20043;-69
2022/09/12 09:52:04;;;;;;;36.30;28.93;;;;;;;;;;4992569;28;20542;-67
2022/09/12 09:54:35;;;;;;;36.50;30.13;;;19.90;99.90;;;;;;4993951;28;20391;-71
2022/09/12 09:57:03;;;;;;;36.77;29.37;;;19.90;99.90;;;;;;4993672;28;20069;-68
2022/09/12 09:59:33;;;;;;;38.50;28.87;;;20.00;99.90;;;;;;4993373;28;20491;-71
2022/09/12 10:02:19;;;;;;;36.43;28.50;;;20.10;99.90;;;;;;4994194;28;20430;-69
2022/09/12 10:04:56;;;;;;;34.90;25.60;;;20.20;99.90;;;;;;4994084;28;20074;-69
2022/09/12 10:07:24;;;;;;;30.67;25.20;;;20.20;99.90;;;;;;4997257;28;20124;-68
2022/09/12 10:10:14;;;;;;;32.27;25.80;;;20.20;99.90;;;;;;4997363;28;20043;-68
2022/09/12 10:12:40;;;;;;;31.30;24.20;;;20.30;99.90;;;;;;4994574;28;20066;-68
2022/09/12 10:15:21;;;;;;;33.00;25.10;;;20.30;99.90;;;;;;4997088;28;20057;-68
2022/09/12 10:17:49;;;;;;;34.43;23.90;;;20.40;99.90;;;;;;4997175;28;20506;-68
2022/09/12 10:20:40;;;;;;;32.07;24.43;;;20.40;99.90;;;;;;4997604;28;20046;-68
2022/09/12 10:23:36;;;;;;;30.43;23.27;;;20.40;99.90;;;;;;4997712;28;20148;-68
2022/09/12 10:26:04;;;;;;;;;;;20.40;99.90;;;;;;4997180;28;20058;-68
2022/09/12 10:28:38;;;;;;;26.63;19.63;;;20.40;99.90;;;;;;4996992;28;20060;-68
2022/09/12 10:31:05;;;;;;;26.85;21.58;;;20.40;99.90;;;;;;4996057;28;20410;-68
2022/09/12 10:33:39;;;;;;;26.43;20.20;;;20.40;99.90;;;;;;4995774;28;20042;-68
2022/09/12 10:36:05;;;;;;;32.33;21.73;;;20.50;99.90;;;;;;4997470;28;20372;-68
2022/09/12 10:38:31;;;;;;;29.37;22.07;;;20.50;99.90;;;;;;4997400;28;20050;-68
2022/09/12 10:41:08;;;;;;;23.10;20.20;;;20.50;99.90;;;;;;4997592;28;20045;-68
2022/09/12 10:43:36;;;;;;;27.60;20.90;;;20.50;99.90;;;;;;4995685;28;20042;-68
2022/09/12 10:46:14;;;;;;;28.53;19.60;;;20.50;99.90;;;;;;4996759;28;20050;-68
2022/09/12 10:48:41;;;;;;;25.03;18.33;;;20.50;99.90;;;;;;4996740;28;20061;-68
2022/09/12 10:51:25;;;;;;;23.67;18.03;;;20.40;99.90;;;;;;4996656;28;20085;-68
2022/09/12 10:53:53;;;;;;;24.50;17.38;;;20.50;99.90;;;;;;4997508;28;20050;-68
2022/09/12 10:56:27;;;;;;;22.17;16.27;;;20.50;99.90;;;;;;4995383;28;20046;-69
2022/09/12 10:59:24;;;;;;;20.38;14.95;;;20.60;99.90;;;;;;4996853;28;20428;-68
2022/09/12 11:01:57;;;;;;;20.47;16.50;;;20.60;99.90;;;;;;4996514;28;20471;-68
2022/09/12 11:04:48;;;;;;;21.53;15.07;;;20.60;99.90;;;;;;4996941;28;20491;-68
2022/09/12 11:07:26;;;;;;;19.60;13.77;;;20.70;99.90;;;;;;4996891;28;20054;-68
2022/09/12 11:09:55;;;;;;;20.00;14.60;;;20.70;99.90;;;;;;4995126;28;20043;-68
2022/09/12 11:12:37;;;;;;;23.27;16.20;;;20.70;99.90;;;;;;4995168;28;20050;-68
2022/09/12 11:15:33;;;;;;;23.50;17.03;;;20.70;99.90;;;;;;4996547;28;20046;-68
2022/09/12 11:18:13;;;;;;;;;;;20.70;99.90;;;;;;4996066;28;20045;-68
2022/09/12 11:21:01;;;;;;;22.13;16.43;;;20.80;99.90;;;;;;4996699;28;19921;-68
2022/09/12 11:23:42;;;;;;;21.20;16.33;;;20.80;99.90;;;;;;4996100;28;20054;-68
2022/09/12 11:26:25;;;;;;;19.90;15.73;;;20.90;99.90;;;;;;4996212;28;20127;-68
2022/09/12 11:29:15;;;;;;;24.97;18.77;;;20.90;99.90;;;;;;4996506;28;20448;-68
2022/09/12 11:31:46;;;;;;;24.90;18.20;;;21.00;99.90;;;;;;4996688;28;20360;-68
2022/09/12 11:34:17;;;;;;;21.90;16.50;;;21.00;99.90;;;;;;4995873;28;20499;-68
2022/09/12 11:36:46;;;;;;;22.67;17.20;;;21.30;99.90;;;;;;4996336;28;20439;-68
2022/09/12 11:39:14;;;;;;;23.80;19.17;;;21.30;99.90;;;;;;4995494;28;20059;-68
2022/09/12 11:41:49;;;;;;;23.57;17.77;;;21.50;99.90;;;;;;4995754;28;20046;-68
2022/09/12 11:44:27;;;;;;;18.43;14.13;;;21.60;99.90;;;;;;4996511;28;20422;-68
2022/09/12 11:46:53;;;;;;;18.17;14.27;;;21.70;99.90;;;;;;4995700;28;20054;-68
2022/09/12 11:49:21;;;;;;;19.97;14.33;;;21.90;99.90;;;;;;4995572;28;20089;-68
2022/09/12 11:52:01;;;;;;;18.83;14.00;;;21.90;99.90;;;;;;4995543;28;20112;-68
2022/09/12 11:54:43;;;;;;;17.73;12.17;;;22.00;99.90;;;;;;4996090;28;20043;-68
2022/09/12 11:57:24;;;;;;;20.40;14.70;;;22.00;99.90;;;;;;4994629;28;20088;-68
2022/09/12 11:59:55;;;;;;;21.07;13.57;;;22.00;99.90;;;;;;4995687;28;20582;-68
2022/09/12 12:02:29;;;;;;;18.30;14.50;;;22.10;99.90;;;;;;4995360;28;20057;-68
2022/09/12 12:05:39;;;;;;;17.00;14.48;;;22.00;99.90;;;;;;4995377;28;20057;-68
2022/09/12 12:08:06;;;;;;;19.77;16.10;;;22.00;99.90;;;;;;4935180;29;20055;-68
2022/09/12 12:10:32;;;;;;;18.67;14.70;;;22.00;99.90;;;;;;4919262;29;20468;-68
2022/09/12 12:13:01;;;;;;;16.10;12.97;;;22.00;99.90;;;;;;4963605;28;20054;-68
2022/09/12 12:15:29;;;;;;;15.07;9.67;;;22.10;99.90;;;;;;4995059;28;20057;-68
2022/09/12 12:18:14;;;;;;;14.17;9.13;;;22.20;99.90;;;;;;4995150;28;20438;-68
2022/09/12 12:20:40;;;;;;;14.15;9.82;;;22.20;99.90;;;;;;4995099;28;20054;-68
2022/09/12 12:23:05;;;;;;;13.60;10.40;;;22.30;99.90;;;;;;4995749;28;20046;-68
2022/09/12 12:25:40;;;;;;;13.23;10.20;;;22.20;99.90;;;;;;4994826;28;20430;-68
2022/09/12 12:28:06;;;;;;;12.57;10.43;;;22.30;99.90;;;;;;4994424;28;20058;-68
2022/09/12 12:30:33;;;;;;;16.87;10.60;;;22.20;99.90;;;;;;4994478;28;20047;-68
2022/09/12 12:33:18;;;;;;;13.07;10.20;;;22.20;99.90;;;;;;4995572;28;20097;-68
2022/09/12 12:36:02;;;;;;;13.53;10.27;;;22.30;99.90;;;;;;4994754;28;20057;-68
2022/09/12 12:38:33;;;;;;;13.57;9.53;;;22.30;99.90;;;;;;4994884;28;20049;-68
2022/09/12 12:41:17;;;;;;;10.93;7.60;;;22.40;99.90;;;;;;4994698;28;20117;-68
2022/09/12 12:43:55;;;;;;;12.17;9.07;;;22.40;99.90;;;;;;4994649;28;20050;-68
2022/09/12 12:46:26;;;;;;;10.53;8.13;;;22.40;99.90;;;;;;4994602;28;20475;-68
2022/09/12 12:48:57;;;;;;;11.30;7.73;;;22.40;99.90;;;;;;4994521;28;20058;-68
2022/09/12 12:51:53;;;;;;;14.43;8.03;;;22.50;99.90;;;;;;4994465;28;20483;-68
2022/09/12 12:54:37;;;;;;;;;;;22.50;99.90;;;;;;4993762;28;20144;-68
2022/09/12 12:57:12;;;;;;;12.80;9.73;;;22.50;99.90;;;;;;4994416;28;19944;-68